Time;durP1;ratioP1;P1;durP2;ratioP2;P2;SDS_P1;SDS_P2;PMS_P1;PMS_P2;Temp;Humidity;BMP_temperature;BMP_pressure;BME280_temperature;BME280_humidity;BME280_pressure;Samples;Min_cycle;Max_cycle;Signal;HPM_P1;HPM_P2
2021/10/03 00:01:55;;;;;;;;;;;16.70;99.90;;;;;;1874892;76;20187;-72
2021/10/03 00:04:22;;;;;;;;;;;16.70;99.90;;;;;;1875343;76;20194;-73
2021/10/03 00:06:50;;;;;;;;;;;16.80;99.90;;;;;;1876104;76;20244;-72
2021/10/03 00:09:18;;;;;;;;;;;16.80;99.90;;;;;;1875266;76;20164;-74
2021/10/03 00:11:48;;;;;;;;;;;16.80;99.90;;;;;;1874061;76;20231;-72
2021/10/03 00:14:16;;;;;;;;;;;16.80;99.90;;;;;;1873436;75;20169;-74
2021/10/03 00:16:45;;;;;;;;;;;16.90;99.90;;;;;;1873882;76;20173;-72
2021/10/03 00:19:11;;;;;;;;;;;16.90;99.90;;;;;;1872626;76;20160;-72
2021/10/03 00:21:38;;;;;;;;;;;16.90;99.90;;;;;;1871568;76;20145;-73
2021/10/03 00:24:05;;;;;;;;;;;17.00;99.90;;;;;;1871401;76;20170;-72
2021/10/03 00:26:32;;;;;;;;;;;17.00;99.90;;;;;;1872560;76;20175;-72
2021/10/03 00:28:59;;;;;;;;;;;17.10;99.90;;;;;;1873862;75;20175;-72
2021/10/03 00:31:26;;;;;;;;;;;17.10;99.90;;;;;;1876068;76;20171;-72
2021/10/03 00:33:52;;;;;;;;;;;17.20;99.90;;;;;;1875458;76;20134;-72
2021/10/03 00:36:19;;;;;;;;;;;17.20;99.90;;;;;;1875839;76;20176;-72
2021/10/03 00:38:46;;;;;;;;;;;17.30;99.90;;;;;;1872897;76;20442;-72
2021/10/03 00:41:13;;;;;;;;;;;17.30;99.90;;;;;;1874984;76;20187;-72
2021/10/03 00:43:40;;;;;;;;;;;17.40;99.90;;;;;;1876631;76;20219;-72
2021/10/03 00:46:07;;;;;;;;;;;17.50;99.90;;;;;;1873800;74;20175;-72
2021/10/03 00:48:35;;;;;;;;;;;17.50;99.90;;;;;;1874132;76;20127;-72
2021/10/03 00:51:02;;;;;;;;;;;17.50;99.90;;;;;;1876290;76;20221;-72
2021/10/03 00:53:29;;;;;;;;;;;17.50;99.90;;;;;;1871752;76;20218;-72
2021/10/03 00:55:56;;;;;;;;;;;17.60;99.90;;;;;;1862914;74;20191;-72
2021/10/03 00:58:23;;;;;;;;;;;17.60;99.90;;;;;;1856732;77;20267;-71
2021/10/03 01:00:50;;;;;;;;;;;17.60;99.90;;;;;;1854373;77;20181;-72
2021/10/03 01:03:17;;;;;;;;;;;17.60;99.90;;;;;;1856195;77;20243;-72
2021/10/03 01:05:44;;;;;;;;;;;17.60;99.90;;;;;;1861207;77;20222;-72
2021/10/03 01:08:11;;;;;;;;;;;17.60;99.90;;;;;;1854916;77;20190;-72
2021/10/03 01:10:38;;;;;;;;;;;17.70;99.90;;;;;;1856918;77;20179;-72
2021/10/03 01:13:09;;;;;;;;;;;17.70;99.90;;;;;;1860630;77;20129;-72
2021/10/03 01:15:36;;;;;;;;;;;17.70;99.90;;;;;;1859548;77;20199;-72
2021/10/03 01:18:04;;;;;;;;;;;17.70;99.90;;;;;;1861728;77;20224;-72
2021/10/03 01:20:32;;;;;;;;;;;17.70;99.90;;;;;;1858573;77;20127;-72
2021/10/03 01:23:03;;;;;;;;;;;17.80;99.90;;;;;;1859778;77;20259;-72
2021/10/03 01:25:27;;;;;;;;;;;17.70;99.90;;;;;;1853991;75;20188;-72
2021/10/03 01:27:54;;;;;;;;;;;17.70;99.90;;;;;;1855064;77;20189;-72
2021/10/03 01:30:21;;;;;;;;;;;17.80;99.90;;;;;;1852892;77;20169;-71
2021/10/03 01:32:48;;;;;;;;;;;17.90;99.90;;;;;;1860303;75;20339;-72
2021/10/03 01:35:14;;;;;;;;;;;17.80;99.90;;;;;;1861135;76;20175;-72
2021/10/03 01:37:41;;;;;;;;;;;17.80;99.90;;;;;;1861413;77;20475;-72
2021/10/03 01:40:09;;;;;;;;;;;17.90;99.90;;;;;;1858925;77;20162;-72
2021/10/03 01:42:36;;;;;;;;;;;17.90;99.90;;;;;;1857576;77;20174;-71
2021/10/03 01:45:05;;;;;;;;;;;17.90;99.90;;;;;;1858058;77;20134;-72
2021/10/03 01:47:31;;;;;;;;;;;18.00;99.90;;;;;;1854713;77;20178;-72
2021/10/03 01:49:58;;;;;;;;;;;18.10;99.90;;;;;;1863398;76;20226;-72
2021/10/03 01:52:25;;;;;;;;;;;18.20;99.90;;;;;;1859838;77;20198;-72
2021/10/03 01:54:52;;;;;;;;;;;18.10;99.90;;;;;;1858780;75;20127;-72
2021/10/03 01:57:19;;;;;;;;;;;18.10;99.90;;;;;;1858350;77;20177;-71
2021/10/03 01:59:45;;;;;;;;;;;18.10;99.90;;;;;;1856496;77;20133;-72
2021/10/03 02:02:13;;;;;;;;;;;18.20;99.90;;;;;;1856945;77;20195;-72
2021/10/03 02:04:39;;;;;;;;;;;18.20;99.90;;;;;;1859422;77;20172;-72
2021/10/03 02:07:06;;;;;;;;;;;18.20;99.90;;;;;;1857809;76;20217;-72
2021/10/03 02:09:33;;;;;;;;;;;18.20;99.90;;;;;;1859658;77;20166;-72
2021/10/03 02:12:01;;;;;;;;;;;18.20;99.90;;;;;;1858367;77;20131;-72
2021/10/03 02:14:34;;;;;;;;;;;18.20;99.90;;;;;;1858261;77;20248;-72
2021/10/03 02:16:59;;;;;;;;;;;18.30;99.90;;;;;;1857500;77;20193;-72
2021/10/03 02:19:26;;;;;;;;;;;18.20;99.90;;;;;;1858978;77;20215;-71
2021/10/03 02:21:53;;;;;;;;;;;18.30;99.90;;;;;;1858263;77;20183;-72
2021/10/03 02:24:20;;;;;;;;;;;18.30;99.90;;;;;;1857387;75;20115;-72
2021/10/03 02:26:47;;;;;;;;;;;18.30;99.90;;;;;;1851970;77;20135;-72
2021/10/03 02:29:14;;;;;;;;;;;18.20;99.90;;;;;;1857551;77;20161;-72
2021/10/03 02:31:41;;;;;;;;;;;18.20;99.90;;;;;;1856540;77;20201;-72
2021/10/03 02:34:08;;;;;;;;;;;18.20;99.90;;;;;;1856858;77;20194;-72
2021/10/03 02:36:35;;;;;;;;;;;18.20;99.90;;;;;;1861555;77;20181;-72
2021/10/03 02:39:02;;;;;;;;;;;18.20;99.90;;;;;;1861745;77;20203;-72
2021/10/03 02:41:29;;;;;;;;;;;18.20;99.90;;;;;;1858823;76;20250;-72
2021/10/03 02:43:57;;;;;;;;;;;18.20;99.90;;;;;;1860001;77;20195;-72
2021/10/03 02:46:24;;;;;;;;;;;18.20;99.90;;;;;;1858078;77;20438;-71
2021/10/03 02:48:51;;;;;;;;;;;18.20;99.90;;;;;;1855617;77;20183;-72
2021/10/03 02:51:19;;;;;;;;;;;18.20;99.90;;;;;;1857297;77;20179;-72
2021/10/03 02:53:47;;;;;;;;;;;18.10;99.90;;;;;;1854750;75;20168;-71
2021/10/03 02:56:15;;;;;;;;;;;18.10;99.90;;;;;;1860963;76;20180;-72
2021/10/03 02:58:42;;;;;;;;;;;18.20;99.90;;;;;;1855954;77;20179;-71
2021/10/03 03:01:09;;;;;;;;;;;18.20;99.90;;;;;;1858908;77;20121;-72
2021/10/03 03:03:36;;;;;;;;;;;18.20;99.90;;;;;;1857026;77;20186;-71
2021/10/03 03:06:06;;;;;;;;;;;18.20;99.90;;;;;;1860062;77;20535;-71
2021/10/03 03:08:34;;;;;;;;;;;18.20;99.90;;;;;;1860086;77;20403;-71
2021/10/03 03:11:01;;;;;;;;;;;18.20;99.90;;;;;;1858394;77;20530;-72
2021/10/03 03:13:28;;;;;;;;;;;18.20;99.90;;;;;;1857641;77;20193;-71
2021/10/03 03:15:55;;;;;;;;;;;18.20;99.90;;;;;;1858937;77;20175;-72
2021/10/03 03:18:22;;;;;;;;;;;18.20;99.90;;;;;;1861054;77;20185;-71
2021/10/03 03:20:49;;;;;;;;;;;18.20;99.90;;;;;;1860234;77;20221;-72
2021/10/03 03:23:16;;;;;;;;;;;18.20;99.90;;;;;;1857868;75;20160;-71
2021/10/03 03:25:43;;;;;;;;;;;18.20;99.90;;;;;;1859789;77;20185;-72
2021/10/03 03:28:11;;;;;;;;;;;18.20;99.90;;;;;;1858614;77;20250;-72
2021/10/03 03:30:38;;;;;;;;;;;18.20;99.90;;;;;;1862382;77;20162;-72
2021/10/03 03:33:05;;;;;;;;;;;18.20;99.90;;;;;;1859397;77;20456;-72
2021/10/03 03:35:32;;;;;;;;;;;18.20;99.90;;;;;;1860961;77;20460;-72
2021/10/03 03:37:59;;;;;;;;;;;18.20;99.90;;;;;;1858263;77;20282;-71
2021/10/03 03:40:26;;;;;;;;;;;18.20;99.90;;;;;;1858236;77;20221;-72
2021/10/03 03:42:53;;;;;;;;;;;18.20;99.90;;;;;;1858549;77;20229;-71
2021/10/03 03:45:20;;;;;;;;;;;18.20;99.90;;;;;;1859966;77;20206;-72
2021/10/03 03:47:46;;;;;;;;;;;18.20;99.90;;;;;;1859406;77;20403;-72
2021/10/03 03:50:14;;;;;;;;;;;18.20;99.90;;;;;;1860215;77;20218;-72
2021/10/03 03:52:41;;;;;;;;;;;18.20;99.90;;;;;;1858551;77;20325;-73
2021/10/03 03:55:08;;;;;;;;;;;18.10;99.90;;;;;;1860551;75;20208;-72
2021/10/03 03:57:35;;;;;;;;;;;18.20;99.90;;;;;;1860578;77;20232;-72
2021/10/03 04:00:03;;;;;;;;;;;18.20;99.90;;;;;;1858354;77;20204;-71
2021/10/03 04:02:31;;;;;;;;;;;18.20;99.90;;;;;;1856818;77;20170;-71
2021/10/03 04:04:58;;;;;;;;;;;18.10;99.90;;;;;;1859191;77;20189;-72
2021/10/03 04:07:25;;;;;;;;;;;18.20;99.90;;;;;;1861129;76;20132;-71
2021/10/03 04:09:52;;;;;;;;;;;18.20;99.90;;;;;;1858726;77;20234;-72
2021/10/03 04:12:19;;;;;;;;;;;18.20;99.90;;;;;;1860065;77;20416;-72
2021/10/03 04:14:45;;;;;;;;;;;18.20;99.90;;;;;;1858167;77;20182;-72
2021/10/03 04:17:12;;;;;;;;;;;18.20;99.90;;;;;;1861510;77;20446;-72
2021/10/03 04:19:39;;;;;;;;;;;18.20;99.90;;;;;;1858665;77;20135;-71
2021/10/03 04:22:06;;;;;;;;;;;18.20;99.90;;;;;;1858045;77;20163;-72
2021/10/03 04:24:33;;;;;;;;;;;18.20;99.90;;;;;;1859991;75;20453;-71
2021/10/03 04:26:59;;;;;;;;;;;18.20;99.90;;;;;;1858118;77;20233;-72
2021/10/03 04:29:27;;;;;;;;;;;18.20;99.90;;;;;;1860905;77;20193;-72
2021/10/03 04:31:53;;;;;;;;;;;18.20;99.90;;;;;;1858765;77;20209;-71
2021/10/03 04:34:20;;;;;;;;;;;18.30;99.90;;;;;;1859520;77;20210;-72
2021/10/03 04:36:47;;;;;;;;;;;18.30;99.90;;;;;;1858112;77;20196;-71
2021/10/03 04:39:14;;;;;;;;;;;18.30;99.90;;;;;;1859675;77;20521;-72
2021/10/03 04:41:41;;;;;;;;;;;18.30;99.90;;;;;;1852885;77;20188;-72
2021/10/03 04:44:07;;;;;;;;;;;18.30;99.90;;;;;;1857208;77;20152;-72
2021/10/03 04:46:34;;;;;;;;;;;18.40;99.90;;;;;;1852390;77;20228;-72
2021/10/03 04:49:01;;;;;;;;;;;18.30;99.90;;;;;;1859711;76;20193;-72
2021/10/03 04:51:28;;;;;;;;;;;18.30;99.90;;;;;;1854695;77;20190;-72
2021/10/03 04:53:55;;;;;;;;;;;18.40;99.90;;;;;;1855064;75;20220;-72
2021/10/03 04:56:21;;;;;;;;;;;18.40;99.90;;;;;;1855847;77;20202;-72
2021/10/03 04:58:48;;;;;;;;;;;18.30;99.90;;;;;;1853284;77;20148;-72
2021/10/03 05:01:15;;;;;;;;;;;18.40;99.90;;;;;;1862312;77;20246;-72
2021/10/03 05:03:42;;;;;;;;;;;18.40;99.90;;;;;;1859040;77;20197;-72
2021/10/03 05:06:10;;;;;;;;;;;18.50;99.90;;;;;;1858046;77;20235;-72
2021/10/03 05:08:36;;;;;;;;;;;18.50;99.90;;;;;;1861390;77;20883;-72
2021/10/03 05:11:03;;;;;;;;;;;18.50;99.90;;;;;;1855435;77;20260;-72
2021/10/03 05:13:30;;;;;;;;;;;18.60;99.90;;;;;;1854691;77;20212;-72
2021/10/03 05:15:58;;;;;;;;;;;18.50;99.90;;;;;;1858509;77;20190;-72
2021/10/03 05:18:24;;;;;;;;;;;18.50;99.90;;;;;;1854084;77;20127;-72
2021/10/03 05:20:52;;;;;;;;;;;18.40;99.90;;;;;;1856816;77;20448;-72
2021/10/03 05:23:19;;;;;;;;;;;18.40;99.90;;;;;;1852771;75;20406;-72
2021/10/03 05:25:45;;;;;;;;;;;18.50;99.90;;;;;;1858990;77;20166;-72
2021/10/03 05:28:12;;;;;;;;;;;18.50;99.90;;;;;;1857689;77;20198;-72
2021/10/03 05:30:39;;;;;;;;;;;18.40;99.90;;;;;;1852954;77;20216;-72
2021/10/03 05:33:06;;;;;;;;;;;18.50;99.90;;;;;;1862237;77;20469;-71
2021/10/03 05:35:33;;;;;;;;;;;18.50;99.90;;;;;;1858966;77;20130;-71
2021/10/03 05:38:00;;;;;;;;;;;18.50;99.90;;;;;;1863917;77;20133;-72
2021/10/03 05:40:26;;;;;;;;;;;18.50;99.90;;;;;;1858475;76;20178;-71
2021/10/03 05:42:53;;;;;;;;;;;18.60;99.90;;;;;;1859077;77;20125;-71
2021/10/03 05:45:20;;;;;;;;;;;18.50;99.90;;;;;;1860512;77;20117;-72
2021/10/03 05:47:47;;;;;;;;;;;18.60;99.90;;;;;;1861729;77;20141;-72
2021/10/03 05:50:15;;;;;;;;;;;18.50;99.90;;;;;;1860348;77;20140;-72
2021/10/03 05:52:42;;;;;;;;;;;18.50;99.90;;;;;;1862547;77;20154;-71
2021/10/03 05:55:09;;;;;;;;;;;18.40;99.90;;;;;;1859226;75;20223;-72
2021/10/03 05:57:35;;;;;;;;;;;18.40;99.90;;;;;;1861629;77;20109;-71
2021/10/03 06:00:03;;;;;;;;;;;18.40;99.90;;;;;;1858627;77;20203;-71
2021/10/03 06:02:30;;;;;;;;;;;18.40;99.90;;;;;;1862500;77;20199;-71
2021/10/03 06:04:57;;;;;;;;;;;18.40;99.90;;;;;;1857885;77;20410;-72
2021/10/03 06:07:24;;;;;;;;;;;18.40;99.90;;;;;;1855678;77;20126;-72
2021/10/03 06:09:50;;;;;;;;;;;18.50;99.90;;;;;;1858080;77;20471;-72
2021/10/03 06:12:17;;;;;;;;;;;18.50;99.90;;;;;;1854698;77;20134;-72
2021/10/03 06:14:44;;;;;;;;;;;18.50;99.90;;;;;;1857008;76;20131;-71
2021/10/03 06:17:11;;;;;;;;;;;18.50;99.90;;;;;;1857832;77;20177;-71
2021/10/03 06:19:38;;;;;;;;;;;18.50;99.90;;;;;;1860754;77;20221;-71
2021/10/03 06:22:05;;;;;;;;;;;18.60;99.90;;;;;;1858545;77;20168;-71
2021/10/03 06:24:31;;;;;;;;;;;18.60;99.90;;;;;;1858159;75;20173;-72
2021/10/03 06:26:58;;;;;;;;;;;18.60;99.90;;;;;;1856520;77;20379;-72
2021/10/03 06:29:25;;;;;;;;;;;18.60;99.90;;;;;;1857574;77;20214;-72
2021/10/03 06:31:52;;;;;;;;;;;18.60;99.90;;;;;;1856844;77;20161;-72
2021/10/03 06:34:19;;;;;;;;;;;18.70;99.90;;;;;;1856568;77;20169;-71
2021/10/03 06:36:45;;;;;;;;;;;18.80;99.90;;;;;;1859207;77;20544;-71
2021/10/03 06:39:12;;;;;;;;;;;18.80;99.90;;;;;;1857538;77;20171;-71
2021/10/03 06:41:39;;;;;;;;;;;18.80;99.90;;;;;;1858823;77;20211;-72
2021/10/03 06:44:07;;;;;;;;;;;18.80;99.90;;;;;;1858354;77;20580;-71
2021/10/03 06:46:34;;;;;;;;;;;18.80;99.90;;;;;;1859214;77;20576;-72
2021/10/03 06:49:01;;;;;;;;;;;18.80;99.90;;;;;;1861111;77;20847;-72
2021/10/03 06:51:28;;;;;;;;;;;18.90;99.90;;;;;;1861075;77;20226;-72
2021/10/03 06:53:54;;;;;;;;;;;18.90;99.90;;;;;;1858601;75;20521;-72
2021/10/03 06:56:22;;;;;;;;;;;18.90;99.90;;;;;;1847111;75;20168;-72
2021/10/03 06:58:49;;;;;;;;;;;19.00;99.90;;;;;;1840300;76;20156;-72
2021/10/03 07:01:21;;;;;;;;;;;18.90;99.90;;;;;;1837477;76;20533;-72
2021/10/03 07:03:48;;;;;;;;;;;18.90;99.90;;;;;;1839765;76;20320;-72
2021/10/03 07:06:15;;;;;;;;;;;18.90;99.90;;;;;;1845988;76;20407;-72
2021/10/03 07:08:42;;;;;;;;;;;18.90;99.90;;;;;;1850786;76;20176;-72
2021/10/03 07:11:09;;;;;;;;;;;18.90;99.90;;;;;;1855255;76;20218;-72
2021/10/03 07:13:35;;;;;;;;;;;19.00;99.90;;;;;;1854784;76;20130;-72
2021/10/03 07:16:02;;;;;;;;;;;19.00;99.90;;;;;;1852121;76;20194;-72
2021/10/03 07:18:29;;;;;;;;;;;19.00;99.90;;;;;;1855704;76;20423;-72
2021/10/03 07:20:56;;;;;;;;;;;19.00;99.90;;;;;;1852218;76;20221;-72
2021/10/03 07:23:26;;;;;;;;;;;19.00;99.90;;;;;;1858239;76;20448;-73
2021/10/03 07:25:51;;;;;;;;;;;19.00;99.90;;;;;;1850342;76;20119;-72
2021/10/03 07:28:20;;;;;;;;;;;19.00;99.90;;;;;;1851213;76;20214;-72
2021/10/03 07:30:46;;;;;;;;;;;19.00;99.90;;;;;;1854315;76;20580;-72
2021/10/03 07:33:14;;;;;;;;;;;19.00;99.90;;;;;;1851618;76;20178;-72
2021/10/03 07:35:41;;;;;;;;;;;19.00;99.90;;;;;;1849146;76;20213;-72
2021/10/03 07:38:08;;;;;;;;;;;19.00;99.90;;;;;;1850988;76;20205;-72
2021/10/03 07:40:34;;;;;;;;;;;19.00;99.90;;;;;;1854127;76;20188;-72
2021/10/03 07:43:01;;;;;;;;;;;19.00;99.90;;;;;;1852889;76;20201;-72
2021/10/03 07:45:28;;;;;;;;;;;19.00;99.90;;;;;;1853146;76;20179;-72
2021/10/03 07:47:55;;;;;;;;;;;19.00;99.90;;;;;;1854777;76;20226;-72
2021/10/03 07:50:22;;;;;;;;;;;19.00;99.90;;;;;;1852275;76;20716;-72
2021/10/03 07:52:48;;;;;;;;;;;19.00;99.90;;;;;;1851853;76;20710;-72
2021/10/03 07:55:15;;;;;;;;;;;19.10;99.90;;;;;;1849886;76;20166;-72
2021/10/03 07:57:42;;;;;;;;;;;19.00;99.90;;;;;;1857456;76;20400;-72
2021/10/03 08:00:10;;;;;;;;;;;19.00;99.90;;;;;;1849340;76;20223;-72
2021/10/03 08:02:37;;;;;;;;;;;19.00;99.90;;;;;;1855604;76;20172;-72
2021/10/03 08:05:04;;;;;;;;;;;19.00;99.90;;;;;;1853151;76;20211;-72
2021/10/03 08:07:31;;;;;;;;;;;19.10;99.90;;;;;;1852937;76;20542;-73
2021/10/03 08:09:58;;;;;;;;;;;19.00;99.90;;;;;;1853900;76;20182;-72
2021/10/03 08:12:25;;;;;;;;;;;19.10;99.90;;;;;;1851967;76;20216;-72
2021/10/03 08:14:51;;;;;;;;;;;19.10;99.90;;;;;;1854338;76;20256;-72
2021/10/03 08:17:18;;;;;;;;;;;19.10;99.90;;;;;;1853012;76;20174;-72
2021/10/03 08:19:45;;;;;;;;;;;19.10;99.90;;;;;;1850026;76;20495;-72
2021/10/03 08:22:12;;;;;;;;;;;19.10;99.90;;;;;;1853805;76;20210;-72
2021/10/03 08:24:39;;;;;;;;;;;19.00;99.90;;;;;;1858273;76;20437;-72
2021/10/03 08:27:05;;;;;;;;;;;19.00;99.90;;;;;;1853566;76;20558;-72
2021/10/03 08:29:32;;;;;;;;;;;18.90;99.90;;;;;;1854093;76;20219;-72
2021/10/03 08:31:59;;;;;;;;;;;19.00;99.90;;;;;;1853959;76;20220;-72
2021/10/03 08:34:26;;;;;;;;;;;19.00;99.90;;;;;;1852088;76;20203;-72
2021/10/03 08:36:53;;;;;;;;;;;18.90;99.90;;;;;;1855654;76;20124;-72
2021/10/03 08:39:19;;;;;;;;;;;19.00;99.90;;;;;;1854834;76;20265;-72
2021/10/03 08:41:46;;;;;;;;;;;18.90;99.90;;;;;;1855225;76;20179;-71
2021/10/03 08:44:13;;;;;;;;;;;18.90;99.90;;;;;;1851194;76;20126;-72
2021/10/03 08:46:41;;;;;;;;;;;18.90;99.90;;;;;;1848636;76;20194;-72
2021/10/03 08:49:08;;;;;;;;;;;18.80;99.90;;;;;;1850633;76;20449;-72
2021/10/03 08:51:34;;;;;;;;;;;18.80;99.90;;;;;;1848464;76;20495;-72
2021/10/03 08:54:01;;;;;;;;;;;18.70;99.90;;;;;;1853885;76;20233;-73
2021/10/03 08:56:29;;;;;;;;;;;18.80;99.90;;;;;;1852049;76;20236;-72
2021/10/03 08:58:56;;;;;;;;;;;18.80;99.90;;;;;;1852164;76;20442;-72
2021/10/03 09:01:23;;;;;;;;;;;18.80;99.90;;;;;;1852009;76;20184;-73
2021/10/03 09:03:51;;;;;;;;;;;18.80;99.90;;;;;;1849998;76;20178;-72
2021/10/03 09:06:20;;;;;;;;;;;18.80;99.90;;;;;;1854190;76;20251;-71
2021/10/03 09:08:47;;;;;;;;;;;18.80;99.90;;;;;;1857334;76;20217;-71
2021/10/03 09:11:14;;;;;;;;;;;18.90;99.90;;;;;;1855007;76;20120;-73
2021/10/03 09:13:43;;;;;;;;;;;19.00;99.90;;;;;;1857411;76;20194;-72
2021/10/03 09:16:11;;;;;;;;;;;19.10;99.90;;;;;;1854707;76;20230;-71
2021/10/03 09:18:48;;;;;;;;;;;19.10;99.90;;;;;;1848012;76;20441;-71
2021/10/03 09:21:32;;;;;;;;;;;19.10;99.90;;;;;;1854153;76;20496;-73
2021/10/03 09:24:16;;;;;;;;;;;19.10;99.90;;;;;;1849216;76;20156;-73
2021/10/03 09:27:02;;;;;;;;;;;19.10;99.90;;;;;;1856928;76;20207;-72
2021/10/03 09:29:27;;;;;;;;;;;19.10;99.90;;;;;;1851276;76;20125;-72
2021/10/03 09:32:12;;;;;;;;;;;19.10;99.90;;;;;;1854273;76;20204;-72
2021/10/03 09:34:40;;;;;;;;;;;19.10;99.90;;;;;;1853162;76;20163;-71
2021/10/03 09:37:26;;;;;;;;;;;19.10;99.90;;;;;;1857931;76;20235;-72
2021/10/03 09:40:12;;;;;;;;;;;19.10;99.90;;;;;;1831587;78;20261;-72
2021/10/03 09:42:39;;;;;;;;;;;19.20;99.90;;;;;;1828713;78;20203;-71
2021/10/03 09:45:07;;;;;;;;;;;19.20;99.90;;;;;;1832181;78;20215;-71
2021/10/03 09:47:35;;;;;;;;;;;19.20;99.90;;;;;;1825582;78;20212;-71
2021/10/03 09:50:03;;;;;;;;;;;19.20;99.90;;;;;;1826727;78;20192;-71
2021/10/03 09:52:30;;;;;;;;;;;19.20;99.90;;;;;;1822818;78;20197;-70
2021/10/03 09:54:57;;;;;;;;;;;19.20;99.90;;;;;;1824500;78;20128;-71
2021/10/03 09:57:24;;;;;;;;;;;19.20;99.90;;;;;;1821079;78;20187;-71
2021/10/03 09:59:51;;;;;;;;;;;19.20;99.90;;;;;;1824529;78;20399;-71
2021/10/03 10:02:19;;;;;;;;;;;19.20;99.90;;;;;;1822555;78;20206;-72
2021/10/03 10:04:46;;;;;;;;;;;19.10;99.90;;;;;;1822131;78;20166;-71
2021/10/03 10:07:13;;;;;;;;;;;19.20;99.90;;;;;;1828522;78;20214;-73
2021/10/03 10:09:40;;;;;;;;;;;19.10;99.90;;;;;;1824485;78;20192;-74
2021/10/03 10:12:14;;;;;;;;;;;19.20;99.90;;;;;;1827317;78;20192;-71
2021/10/03 10:14:43;;;;;;;;;;;19.20;99.90;;;;;;1826833;78;20203;-71
2021/10/03 10:17:29;;;;;;;;;;;19.20;99.90;;;;;;1827332;78;20263;-71
2021/10/03 10:20:00;;;;;;;;;;;19.20;99.90;;;;;;1827423;78;20190;-71
2021/10/03 10:22:33;;;;;;;;;;;19.20;99.90;;;;;;1824273;78;20182;-71
2021/10/03 10:25:00;;;;;;;;;;;19.20;99.90;;;;;;1824290;78;20377;-71
2021/10/03 10:27:28;;;;;;;;;;;19.20;99.90;;;;;;1822838;78;20186;-73
2021/10/03 10:30:00;;;;;;;;;;;19.10;99.90;;;;;;1827734;78;20177;-73
2021/10/03 10:32:34;;;;;;;;;;;19.10;99.90;;;;;;1825574;78;20224;-73
2021/10/03 10:35:11;;;;;;;;;;;19.20;99.90;;;;;;1826625;78;20219;-73
2021/10/03 10:37:53;;;;;;;;;;;19.20;99.90;;;;;;1821552;78;20214;-72
2021/10/03 10:40:24;;;;;;;;;;;19.20;99.90;;;;;;1826113;78;20214;-72
2021/10/03 10:42:52;;;;;;;;;;;19.20;99.90;;;;;;1826382;78;20787;-72
2021/10/03 10:45:36;;;;;;;;;;;19.30;99.90;;;;;;1820220;78;20215;-72
2021/10/03 10:48:10;;;;;;;;;;;19.20;99.90;;;;;;1826639;78;20477;-71
2021/10/03 10:50:38;;;;;;;;;;;19.20;99.90;;;;;;1827403;78;20174;-72
2021/10/03 10:53:22;;;;;;;;;;;19.20;99.90;;;;;;1826931;78;20192;-72
2021/10/03 10:56:02;;;;;;;;;;;19.20;99.90;;;;;;1827447;78;20212;-71
2021/10/03 10:58:29;;;;;;;;;;;19.20;99.90;;;;;;1830110;78;20188;-72
2021/10/03 11:01:00;;;;;;;;;;;19.20;99.90;;;;;;1828619;78;20176;-71
2021/10/03 11:03:44;;;;;;;;;;;19.20;99.90;;;;;;1824222;78;20399;-72
2021/10/03 11:06:15;;;;;;;;;;;19.30;99.90;;;;;;1824567;78;20119;-71
2021/10/03 11:08:59;;;;;;;;;;;19.20;99.90;;;;;;1819999;78;20436;-72
2021/10/03 11:11:30;;;;;;;;;;;19.30;99.90;;;;;;1827546;78;20170;-72
2021/10/03 11:13:58;;;;;;;;;;;19.30;99.90;;;;;;1827416;78;20178;-72
2021/10/03 11:16:28;;;;;;;;;;;19.30;99.90;;;;;;1823697;78;20240;-72
2021/10/03 11:18:56;;;;;;;;;;;19.30;99.90;;;;;;1822115;78;20129;-72
2021/10/03 11:21:27;;;;;;;;;;;19.30;99.90;;;;;;1821992;78;20137;-71
2021/10/03 11:23:55;;;;;;;;;;;19.40;99.90;;;;;;1821504;78;20158;-72
2021/10/03 11:26:23;;;;;;;;;;;19.40;99.90;;;;;;1820372;78;20502;-72
2021/10/03 11:28:51;;;;;;;;;;;19.40;99.90;;;;;;1828821;78;20295;-71
2021/10/03 11:31:38;;;;;;;;;;;19.40;99.90;;;;;;1827544;78;20336;-72
2021/10/03 11:34:06;;;;;;;;;;;19.40;99.90;;;;;;1826779;78;20180;-72
2021/10/03 11:36:33;;;;;;;;;;;19.40;99.90;;;;;;1826964;78;20233;-72
2021/10/03 11:39:00;;;;;;;;;;;19.50;99.90;;;;;;1827091;78;20122;-72
2021/10/03 11:41:27;;;;;;;;;;;19.40;99.90;;;;;;1830202;77;20242;-72
2021/10/03 11:43:55;;;;;;;;;;;19.40;99.90;;;;;;1821595;78;20129;-72
2021/10/03 11:46:21;;;;;;;;;;;19.40;99.90;;;;;;1827964;78;20176;-72
2021/10/03 11:48:53;;;;;;;;;;;19.40;99.90;;;;;;1825808;78;20192;-72
2021/10/03 11:51:20;;;;;;;;;;;19.40;99.90;;;;;;1824701;78;20182;-72
2021/10/03 11:53:49;;;;;;;;;;;19.40;99.90;;;;;;1824797;78;20170;-72
2021/10/03 11:56:19;;;;;;;;;;;19.40;99.90;;;;;;1828177;78;20132;-72
2021/10/03 11:58:45;;;;;;;;;;;19.50;99.90;;;;;;1826484;78;20296;-72
2021/10/03 12:01:12;;;;;;;;;;;19.60;99.90;;;;;;1825072;78;20117;-72
2021/10/03 12:03:46;;;;;;;;;;;19.60;99.90;;;;;;1829307;78;20204;-72
2021/10/03 12:06:17;;;;;;;;;;;19.60;99.90;;;;;;1825308;78;20153;-72
2021/10/03 12:08:44;;;;;;;;;;;19.60;99.90;;;;;;1824342;78;20176;-72
2021/10/03 12:11:11;;;;;;;;;;;19.60;99.90;;;;;;1823697;78;20223;-72
2021/10/03 12:13:38;;;;;;;;;;;19.60;99.90;;;;;;1825841;78;20176;-72
2021/10/03 12:16:07;;;;;;;;;;;19.70;99.90;;;;;;1828752;78;20117;-72
2021/10/03 12:18:35;;;;;;;;;;;19.70;99.90;;;;;;1824556;78;20186;-72
2021/10/03 12:21:04;;;;;;;;;;;19.70;99.90;;;;;;1826005;78;20220;-72
2021/10/03 12:23:44;;;;;;;;;;;19.70;99.90;;;;;;1826930;78;20151;-72
2021/10/03 12:26:16;;;;;;;;;;;19.70;99.90;;;;;;1826487;78;20122;-72
2021/10/03 12:28:56;;;;;;;;;;;19.80;99.90;;;;;;1827907;78;20262;-72
2021/10/03 12:31:41;;;;;;;;;;;19.80;99.90;;;;;;1824403;78;20170;-72
2021/10/03 12:34:15;;;;;;;;;;;19.80;99.90;;;;;;1826521;78;20169;-72
2021/10/03 12:36:42;;;;;;;;;;;19.80;99.90;;;;;;1825074;78;20184;-72
2021/10/03 12:39:09;;;;;;;;;;;19.80;99.90;;;;;;1821692;78;20235;-72
2021/10/03 12:41:36;;;;;;;;;;;19.80;99.90;;;;;;1825936;78;20220;-72
2021/10/03 12:44:03;;;;;;;;;;;19.80;99.90;;;;;;1826438;78;20104;-72
2021/10/03 12:46:30;;;;;;;;;;;19.80;99.90;;;;;;1823208;78;20197;-71
2021/10/03 12:48:56;;;;;;;;;;;19.80;99.90;;;;;;1820686;78;20189;-71
2021/10/03 12:51:23;;;;;;;;;;;19.80;99.90;;;;;;1821688;78;20218;-72
2021/10/03 12:53:51;;;;;;;;;;;19.80;99.90;;;;;;1826841;78;20247;-71
2021/10/03 12:56:17;;;;;;;;;;;19.80;99.90;;;;;;1824772;75;20150;-72
2021/10/03 12:58:44;;;;;;;;;;;19.80;99.90;;;;;;1808605;79;20176;-72
2021/10/03 13:01:11;;;;;;;;;;;19.90;99.90;;;;;;1809378;79;20160;-74
2021/10/03 13:03:39;;;;;;;;;;;19.90;99.90;;;;;;1813497;78;20206;-71
2021/10/03 13:06:06;;;;;;;;;;;19.90;99.90;;;;;;1813237;79;20136;-71
2021/10/03 13:08:34;;;;;;;;;;;20.00;99.90;;;;;;1810301;79;20162;-71
2021/10/03 13:11:01;;;;;;;;;;;20.00;99.90;;;;;;1810778;79;20178;-72
2021/10/03 13:13:28;;;;;;;;;;;20.00;99.90;;;;;;1811982;79;20223;-72
2021/10/03 13:15:55;;;;;;;;;;;20.10;99.90;;;;;;1816059;77;20185;-72
2021/10/03 13:18:22;;;;;;;;;;;20.10;99.90;;;;;;1810809;77;20119;-72
2021/10/03 13:20:49;;;;;;;;;;;20.00;99.90;;;;;;1811603;78;20187;-72
2021/10/03 13:23:16;;;;;;;;;;;20.10;99.90;;;;;;1814811;78;20132;-72
2021/10/03 13:25:43;;;;;;;;;;;20.00;99.90;;;;;;1811701;77;20840;-72
2021/10/03 13:28:10;;;;;;;;;;;20.00;99.90;;;;;;1814342;79;20190;-72
2021/10/03 13:30:37;;;;;;;;;;;20.00;99.90;;;;;;1810167;79;20169;-73
2021/10/03 13:33:03;;;;;;;;;;;20.00;99.90;;;;;;1813441;77;20175;-73
2021/10/03 13:35:30;;;;;;;;;;;20.00;99.90;;;;;;1807341;79;20139;-73
2021/10/03 13:37:57;;;;;;;;;;;19.90;99.90;;;;;;1806331;79;20187;-73
2021/10/03 13:40:24;;;;;;;;;;;20.00;99.90;;;;;;1813232;79;20166;-72
2021/10/03 13:42:51;;;;;;;;;;;20.00;99.90;;;;;;1809864;79;20239;-72
2021/10/03 13:45:17;;;;;;;;;;;20.00;99.90;;;;;;1810341;79;20214;-73
2021/10/03 13:47:44;;;;;;;;;;;20.00;99.90;;;;;;1812131;79;20402;-72
2021/10/03 13:50:11;;;;;;;;;;;19.90;99.90;;;;;;1812212;77;20128;-72
2021/10/03 13:52:38;;;;;;;;;;;20.00;99.90;;;;;;1809496;79;20217;-72
2021/10/03 13:55:05;;;;;;;;;;;20.00;99.90;;;;;;1809174;78;20479;-73
2021/10/03 13:57:32;;;;;;;;;;;20.00;99.90;;;;;;1809965;77;20266;-73
2021/10/03 13:59:59;;;;;;;;;;;20.00;99.90;;;;;;1811779;79;20238;-73
2021/10/03 14:02:26;;;;;;;;;;;20.00;99.90;;;;;;1807849;78;20308;-72
2021/10/03 14:04:53;;;;;;;;;;;20.10;99.90;;;;;;1810326;77;20246;-73
2021/10/03 14:07:19;;;;;;;;;;;20.10;99.90;;;;;;1812392;79;20457;-72
2021/10/03 14:09:46;;;;;;;;;;;20.10;99.90;;;;;;1808146;79;20174;-72
2021/10/03 14:12:13;;;;;;;;;;;20.10;99.90;;;;;;1811832;79;20618;-72
2021/10/03 14:14:40;;;;;;;;;;;20.10;99.90;;;;;;1812405;79;20180;-73
2021/10/03 14:17:07;;;;;;;;;;;20.10;99.90;;;;;;1811866;77;20450;-72
2021/10/03 14:19:33;;;;;;;;;;;20.10;99.90;;;;;;1808949;77;20123;-72
2021/10/03 14:22:00;;;;;;;;;;;20.10;99.90;;;;;;1812267;78;20176;-72